createdAt,value
2018-11-28T00:00:11.495Z,12.87
2018-11-28T00:02:39.694Z,14.37
2018-11-28T00:05:10.611Z,13.63
2018-11-28T00:07:38.524Z,13.23
2018-11-28T00:10:09.642Z,13.70
2018-11-28T00:12:38.190Z,13.60
2018-11-28T00:15:07.162Z,12.87
2018-11-28T00:17:35.344Z,13.40
2018-11-28T00:20:03.299Z,13.50
2018-11-28T00:22:31.173Z,12.80
2018-11-28T00:24:59.073Z,13.83
2018-11-28T00:27:26.991Z,14.07
2018-11-28T00:29:54.890Z,13.23
2018-11-28T00:32:22.829Z,13.17
2018-11-28T00:34:50.738Z,14.20
2018-11-28T00:37:18.658Z,13.40
2018-11-28T00:39:46.558Z,13.80
2018-11-28T00:42:14.454Z,13.33
2018-11-28T00:44:42.349Z,13.60
2018-11-28T00:47:10.237Z,14.30
2018-11-28T00:49:38.149Z,13.30
2018-11-28T00:52:06.037Z,13.83
2018-11-28T00:54:33.961Z,14.97
2018-11-28T00:57:01.863Z,14.10
2018-11-28T00:59:29.769Z,14.47
2018-11-28T01:01:57.689Z,15.27
2018-11-28T01:04:25.602Z,14.50
2018-11-28T01:06:53.509Z,14.37
2018-11-28T01:09:21.510Z,13.50
2018-11-28T01:11:49.397Z,14.33
2018-11-28T01:14:17.346Z,14.23
2018-11-28T01:16:45.249Z,13.67
2018-11-28T01:19:13.164Z,13.93
2018-11-28T01:21:41.358Z,14.63
2018-11-28T01:24:09.269Z,14.73
2018-11-28T01:26:37.169Z,14.60
2018-11-28T01:29:05.933Z,14.40
2018-11-28T01:31:33.822Z,14.43
2018-11-28T01:34:01.701Z,14.90
2018-11-28T01:36:29.617Z,14.97
2018-11-28T01:38:57.529Z,15.13
2018-11-28T01:41:25.438Z,15.13
2018-11-28T01:43:53.362Z,15.17
2018-11-28T01:46:21.258Z,14.53
2018-11-28T01:48:49.167Z,14.87
2018-11-28T01:51:17.095Z,14.93
2018-11-28T01:53:44.969Z,14.67
2018-11-28T01:56:12.906Z,14.63
2018-11-28T01:58:40.846Z,14.50
2018-11-28T02:01:08.771Z,14.33
2018-11-28T02:03:36.662Z,14.80
2018-11-28T02:06:04.833Z,14.67
2018-11-28T02:08:32.725Z,15.07
2018-11-28T02:11:00.617Z,13.33
2018-11-28T02:13:28.517Z,15.00
2018-11-28T02:15:56.422Z,14.57
2018-11-28T02:18:24.362Z,14.83
2018-11-28T02:20:52.305Z,14.87
2018-11-28T02:23:20.193Z,13.83
2018-11-28T02:25:48.117Z,14.67
2018-11-28T02:28:16.021Z,15.13
2018-11-28T02:30:43.942Z,14.70
2018-11-28T02:33:11.903Z,14.20
2018-11-28T02:35:39.792Z,14.93
2018-11-28T02:38:07.707Z,14.30
2018-11-28T02:40:35.611Z,15.17
2018-11-28T02:43:03.509Z,15.90
2018-11-28T02:45:31.434Z,13.93
2018-11-28T02:47:59.312Z,15.47
2018-11-28T02:50:27.217Z,14.77
2018-11-28T02:52:55.118Z,14.67
2018-11-28T02:55:23.033Z,14.17
2018-11-28T02:57:50.958Z,13.40
2018-11-28T03:00:20.038Z,14.37
2018-11-28T03:02:47.928Z,14.83
2018-11-28T03:05:15.838Z,14.93
2018-11-28T03:07:43.763Z,14.90
2018-11-28T03:10:12.931Z,14.87
2018-11-28T03:12:40.841Z,14.00
2018-11-28T03:15:11.922Z,13.20
2018-11-28T03:17:39.837Z,13.83
2018-11-28T03:20:09.193Z,14.70
2018-11-28T03:22:37.094Z,13.97
2018-11-28T03:25:06.117Z,15.03
2018-11-28T03:27:34.013Z,14.20
2018-11-28T03:30:01.952Z,15.80
2018-11-28T03:32:29.838Z,14.27
2018-11-28T03:34:57.728Z,14.07
2018-11-28T03:37:25.647Z,13.90
2018-11-28T03:39:53.573Z,14.07
2018-11-28T03:42:21.598Z,14.63
2018-11-28T03:44:49.430Z,15.13
2018-11-28T03:47:17.334Z,14.23
2018-11-28T03:49:45.254Z,13.60
2018-11-28T03:52:13.139Z,15.20
2018-11-28T03:54:41.078Z,14.37
2018-11-28T03:57:08.986Z,14.23
2018-11-28T03:59:36.866Z,14.03
2018-11-28T04:02:05.182Z,14.43
2018-11-28T04:04:33.086Z,14.93
2018-11-28T04:07:00.967Z,13.70
2018-11-28T04:09:28.859Z,14.10
2018-11-28T04:11:56.766Z,14.93
2018-11-28T04:14:24.673Z,15.13
2018-11-28T04:16:52.572Z,14.73
2018-11-28T04:19:20.453Z,14.60
2018-11-28T04:21:48.394Z,15.63
2018-11-28T04:24:16.371Z,14.10
2018-11-28T04:26:44.275Z,14.53
2018-11-28T04:29:12.184Z,14.60
2018-11-28T04:31:40.186Z,13.87
2018-11-28T04:34:08.078Z,14.73
2018-11-28T04:36:35.974Z,14.63
2018-11-28T04:39:05.558Z,14.40
2018-11-28T04:41:33.493Z,15.40
2018-11-28T04:44:01.418Z,14.90
2018-11-28T04:46:29.314Z,15.00
2018-11-28T04:48:57.225Z,15.07
2018-11-28T04:51:25.124Z,15.47
2018-11-28T04:53:53.095Z,15.47
2018-11-28T04:56:21.004Z,15.63
2018-11-28T04:58:48.912Z,14.03
2018-11-28T05:01:16.822Z,15.40
2018-11-28T05:03:44.793Z,16.07
2018-11-28T05:06:25.690Z,14.60
2018-11-28T05:08:53.782Z,15.43
2018-11-28T05:11:21.676Z,15.13
2018-11-28T05:13:49.601Z,15.30
2018-11-28T05:16:17.533Z,15.90
2018-11-28T05:18:45.447Z,16.40
2018-11-28T05:21:13.370Z,16.00
2018-11-28T05:23:41.291Z,15.83
2018-11-28T05:26:09.193Z,16.47
2018-11-28T05:28:37.121Z,16.10
2018-11-28T05:31:05.262Z,15.77
2018-11-28T05:33:33.178Z,16.23
2018-11-28T05:36:01.070Z,15.77
2018-11-28T05:38:29.333Z,15.77
2018-11-28T05:40:57.245Z,16.67
2018-11-28T05:43:25.162Z,16.63
2018-11-28T05:45:53.069Z,15.37
2018-11-28T05:48:20.968Z,16.33
2018-11-28T05:50:48.886Z,16.23
2018-11-28T05:53:16.796Z,15.93
2018-11-28T05:55:44.772Z,16.37
2018-11-28T05:58:12.659Z,16.43
2018-11-28T06:00:41.209Z,14.70
2018-11-28T06:03:11.073Z,15.60
2018-11-28T06:05:39.873Z,15.23
2018-11-28T06:08:08.005Z,15.47
2018-11-28T06:10:36.013Z,14.43
2018-11-28T06:13:04.050Z,15.73
2018-11-28T06:15:31.967Z,15.20
2018-11-28T06:17:59.862Z,12.77
2018-11-28T06:20:27.767Z,16.57
2018-11-28T06:22:55.690Z,15.70
2018-11-28T06:25:23.574Z,14.90
2018-11-28T06:27:51.522Z,15.33
2018-11-28T06:30:20.284Z,16.40
2018-11-28T06:32:51.244Z,14.40
2018-11-28T06:35:16.101Z,16.20
2018-11-28T06:37:44.230Z,14.13
2018-11-28T06:40:13.178Z,16.60
2018-11-28T06:42:41.065Z,15.20
2018-11-28T06:45:10.514Z,15.23
2018-11-28T06:47:38.469Z,15.97
2018-11-28T06:50:09.730Z,15.00
2018-11-28T06:52:37.654Z,14.77
2018-11-28T06:55:07.694Z,16.23
2018-11-28T06:57:35.594Z,15.63
2018-11-28T07:00:04.070Z,15.13
2018-11-28T07:02:31.965Z,15.47
2018-11-28T07:04:59.873Z,15.90
2018-11-28T07:07:27.757Z,15.77
2018-11-28T07:09:55.638Z,16.10
2018-11-28T07:12:23.581Z,15.83
2018-11-28T07:14:51.471Z,15.70
2018-11-28T07:17:19.357Z,17.13
2018-11-28T07:19:47.265Z,16.00
2018-11-28T07:22:15.161Z,16.17
2018-11-28T07:24:43.061Z,15.67
2018-11-28T07:27:10.970Z,15.07
2018-11-28T07:29:38.873Z,15.80
2018-11-28T07:32:06.806Z,15.33
2018-11-28T07:34:34.757Z,15.07
2018-11-28T07:37:02.675Z,16.27
2018-11-28T07:39:30.617Z,15.77
2018-11-28T07:41:58.518Z,15.93
2018-11-28T07:44:26.428Z,15.10
2018-11-28T07:46:54.415Z,15.90
2018-11-28T07:49:22.302Z,15.67
2018-11-28T07:51:50.234Z,15.73
2018-11-28T07:54:18.118Z,15.20
2018-11-28T07:56:46.022Z,14.70
2018-11-28T07:59:13.913Z,16.27
2018-11-28T08:01:41.833Z,15.77
2018-11-28T08:04:09.746Z,15.70
2018-11-28T08:06:37.849Z,16.87
2018-11-28T08:09:07.436Z,16.33
2018-11-28T08:11:35.285Z,15.13
2018-11-28T08:14:03.185Z,16.60
2018-11-28T08:16:31.090Z,16.03
2018-11-28T08:18:59.016Z,15.90
2018-11-28T08:21:26.893Z,17.77
2018-11-28T08:23:54.789Z,16.97
2018-11-28T08:26:22.699Z,15.40
2018-11-28T08:28:51.474Z,15.73
2018-11-28T08:31:19.394Z,15.47
2018-11-28T08:33:47.289Z,16.37
2018-11-28T08:36:15.202Z,15.43
2018-11-28T08:38:43.085Z,16.10
2018-11-28T08:41:10.975Z,17.10
2018-11-28T08:43:38.889Z,15.90
2018-11-28T08:46:06.798Z,15.87
2018-11-28T08:48:34.728Z,15.50
2018-11-28T08:51:02.609Z,16.33
2018-11-28T08:53:30.517Z,15.43
2018-11-28T08:55:58.423Z,15.67
2018-11-28T08:58:26.320Z,14.73
2018-11-28T09:00:54.201Z,13.70
2018-11-28T09:03:22.109Z,14.30
2018-11-28T09:05:49.989Z,14.70
2018-11-28T09:08:17.886Z,15.03
2018-11-28T09:10:45.789Z,14.13
2018-11-28T09:13:13.707Z,13.33
2018-11-28T09:15:41.622Z,15.70
2018-11-28T09:18:09.516Z,16.10
2018-11-28T09:20:37.440Z,15.33
2018-11-28T09:23:06.526Z,13.23
2018-11-28T09:25:34.403Z,13.17
2018-11-28T09:28:02.321Z,14.10
2018-11-28T09:30:30.217Z,15.17
2018-11-28T09:32:58.106Z,13.63
2018-11-28T09:35:26.018Z,12.97
2018-11-28T09:37:53.909Z,12.73
2018-11-28T09:40:25.732Z,13.57
2018-11-28T09:42:54.771Z,14.20
2018-11-28T09:45:22.661Z,13.23
2018-11-28T09:47:50.563Z,13.53
2018-11-28T09:50:20.444Z,14.23
2018-11-28T09:52:48.345Z,13.77
2018-11-28T09:55:19.142Z,13.67
2018-11-28T09:57:47.070Z,13.60
2018-11-28T10:00:16.586Z,11.93
2018-11-28T10:02:44.553Z,14.63
2018-11-28T10:05:13.877Z,12.43
2018-11-28T10:07:41.850Z,12.87
2018-11-28T10:10:11.021Z,13.33
2018-11-28T10:12:38.942Z,13.90
2018-11-28T10:15:11.764Z,12.60
2018-11-28T10:17:39.755Z,11.60
2018-11-28T10:20:08.820Z,12.07
2018-11-28T10:22:36.737Z,12.53
2018-11-28T10:25:05.515Z,11.90
2018-11-28T10:27:33.516Z,12.50
2018-11-28T10:30:01.385Z,13.50
2018-11-28T10:32:29.595Z,13.20
2018-11-28T10:34:57.524Z,13.90
2018-11-28T10:37:25.445Z,11.97
2018-11-28T10:39:53.366Z,12.17
2018-11-28T10:42:21.270Z,12.13
2018-11-28T10:44:49.172Z,12.90
2018-11-28T10:47:17.115Z,11.53
2018-11-28T10:49:45.025Z,12.43
2018-11-28T10:52:12.997Z,12.43
2018-11-28T10:54:40.914Z,12.87
2018-11-28T10:57:08.881Z,15.90
2018-11-28T10:59:36.753Z,15.03
2018-11-28T11:02:10.171Z,11.50
2018-11-28T11:04:43.304Z,12.20
2018-11-28T11:07:16.717Z,12.23
2018-11-28T11:09:50.127Z,12.50
2018-11-28T11:12:23.576Z,13.80
2018-11-28T11:14:51.518Z,12.77
2018-11-28T11:17:19.413Z,11.90
2018-11-28T11:19:47.492Z,11.73
2018-11-28T11:22:15.280Z,10.90
2018-11-28T11:24:43.166Z,10.47
2018-11-28T11:27:11.092Z,11.60
2018-11-28T11:29:39.074Z,12.37
2018-11-28T11:32:06.982Z,10.80
2018-11-28T11:34:34.902Z,11.90
2018-11-28T11:37:02.839Z,11.87
2018-11-28T11:39:30.757Z,11.77
2018-11-28T11:41:58.655Z,10.93
2018-11-28T11:44:26.558Z,11.00
2018-11-28T11:46:54.510Z,11.13
2018-11-28T11:49:22.416Z,10.30
2018-11-28T11:51:50.341Z,10.63
2018-11-28T11:54:18.234Z,10.53
2018-11-28T11:56:46.146Z,11.50
2018-11-28T11:59:14.063Z,10.50
2018-11-28T12:01:41.953Z,11.23
2018-11-28T12:04:09.917Z,11.93
2018-11-28T12:06:37.858Z,10.23
2018-11-28T12:09:08.637Z,10.97
2018-11-28T12:11:36.557Z,11.93
2018-11-28T12:14:04.881Z,11.03
2018-11-28T12:16:32.802Z,10.60
2018-11-28T12:19:00.824Z,11.07
2018-11-28T12:21:28.733Z,10.97
2018-11-28T12:23:56.618Z,10.53
2018-11-28T12:26:24.533Z,10.63
2018-11-28T12:28:52.421Z,9.73
2018-11-28T12:31:20.354Z,11.17
2018-11-28T12:33:48.267Z,10.00
2018-11-28T12:36:16.161Z,10.73
2018-11-28T12:38:44.095Z,10.03
2018-11-28T12:41:12.002Z,9.67
2018-11-28T12:43:39.930Z,11.17
2018-11-28T12:46:07.878Z,10.30
2018-11-28T12:48:35.830Z,10.47
2018-11-28T12:51:03.743Z,10.23
2018-11-28T12:53:31.645Z,9.33
2018-11-28T12:56:00.586Z,10.67
2018-11-28T12:58:28.475Z,9.93
2018-11-28T13:00:56.433Z,9.53
2018-11-28T13:03:24.338Z,9.50
2018-11-28T13:05:52.262Z,9.63
2018-11-28T13:08:20.165Z,10.07
2018-11-28T13:10:48.076Z,9.90
2018-11-28T13:13:15.998Z,10.20
2018-11-28T13:15:43.903Z,9.20
2018-11-28T13:18:11.865Z,9.23
2018-11-28T13:20:41.134Z,9.33
2018-11-28T13:23:10.237Z,9.53
2018-11-28T13:25:38.158Z,9.93
2018-11-28T13:28:06.270Z,9.30
2018-11-28T13:30:34.194Z,8.93
2018-11-28T13:33:02.102Z,9.20
2018-11-28T13:35:30.034Z,9.17
2018-11-28T13:38:04.894Z,9.67
2018-11-28T13:40:32.823Z,9.77
2018-11-28T13:43:00.745Z,7.40
2018-11-28T13:45:30.946Z,9.37
2018-11-28T13:47:58.879Z,8.83
2018-11-28T13:50:26.782Z,8.73
2018-11-28T13:52:55.485Z,9.30
2018-11-28T13:55:42.408Z,9.10
2018-11-28T13:57:55.181Z,9.17
2018-11-28T14:00:23.079Z,8.67
2018-11-28T14:02:50.975Z,8.60
2018-11-28T14:05:18.898Z,9.23
2018-11-28T14:07:46.802Z,9.23
2018-11-28T14:10:15.224Z,9.43
2018-11-28T14:12:43.141Z,9.20
2018-11-28T14:15:13.425Z,9.07
2018-11-28T14:17:41.589Z,9.47
2018-11-28T14:20:10.614Z,8.80
2018-11-28T14:22:39.433Z,8.90
2018-11-28T14:25:09.007Z,9.63
2018-11-28T14:27:36.709Z,8.57
2018-11-28T14:30:23.522Z,9.73
2018-11-28T14:32:51.979Z,9.13
2018-11-28T14:35:20.413Z,9.53
2018-11-28T14:37:48.319Z,9.47
2018-11-28T14:40:19.332Z,9.87
2018-11-28T14:43:03.106Z,10.37
2018-11-28T14:45:31.545Z,9.70
2018-11-28T14:47:59.450Z,9.67
2018-11-28T14:50:28.237Z,10.13
2018-11-28T14:52:57.386Z,10.70
2018-11-28T14:55:29.222Z,10.03
2018-11-28T14:57:57.154Z,10.60
2018-11-28T15:00:26.270Z,10.03
2018-11-28T15:02:55.509Z,11.20
2018-11-28T15:07:32.646Z,11.30
2018-11-28T15:10:00.581Z,11.23
2018-11-28T15:12:29.770Z,11.93
2018-11-28T15:14:57.676Z,11.80
2018-11-28T15:17:25.601Z,12.03
2018-11-28T15:19:53.496Z,13.03
2018-11-28T15:22:21.410Z,11.40
2018-11-28T15:24:49.345Z,12.63
2018-11-28T15:27:17.224Z,12.93
2018-11-28T15:29:45.133Z,12.23
2018-11-28T15:32:13.045Z,13.27
2018-11-28T15:34:40.934Z,13.40
2018-11-28T15:37:08.886Z,12.40
2018-11-28T15:39:36.782Z,12.47
2018-11-28T15:42:04.690Z,13.40
2018-11-28T15:44:32.586Z,13.93
2018-11-28T15:47:00.494Z,12.43
2018-11-28T15:49:28.421Z,12.33
2018-11-28T15:51:56.322Z,14.53
2018-11-28T15:54:24.253Z,14.03
2018-11-28T15:56:52.170Z,13.50
2018-11-28T15:59:20.057Z,11.93
2018-11-28T16:01:48.121Z,12.77
2018-11-28T16:04:15.882Z,14.10
2018-11-28T16:06:43.822Z,13.27
2018-11-28T16:09:17.117Z,14.33
2018-11-28T16:11:45.027Z,12.97
2018-11-28T16:14:12.959Z,15.83
2018-11-28T16:16:40.861Z,15.33
2018-11-28T16:19:08.786Z,15.90
2018-11-28T16:21:36.693Z,15.60
2018-11-28T16:24:04.616Z,16.17
2018-11-28T16:26:32.515Z,16.43
2018-11-28T16:29:00.460Z,16.60
2018-11-28T16:31:28.365Z,16.33
2018-11-28T16:33:56.258Z,18.47
2018-11-28T16:36:24.162Z,17.13
2018-11-28T16:38:52.087Z,18.23
2018-11-28T16:41:20.000Z,17.50
2018-11-28T16:43:47.934Z,19.37
2018-11-28T16:46:15.848Z,18.33
2018-11-28T16:48:43.770Z,17.27
2018-11-28T16:51:11.671Z,17.73
2018-11-28T16:53:39.609Z,18.93
2018-11-28T16:56:07.503Z,18.13
2018-11-28T16:58:35.405Z,17.90
2018-11-28T17:01:03.518Z,18.80
2018-11-28T17:03:31.435Z,18.63
2018-11-28T17:05:59.335Z,18.70
2018-11-28T17:08:27.231Z,19.23
2018-11-28T17:10:55.142Z,19.77
2018-11-28T17:13:23.034Z,20.93
2018-11-28T17:15:50.950Z,17.23
2018-11-28T17:18:18.845Z,15.83
2018-11-28T17:20:46.738Z,18.23
2018-11-28T17:23:14.617Z,18.53
2018-11-28T17:25:42.510Z,17.33
2018-11-28T17:28:10.436Z,17.50
2018-11-28T17:30:38.335Z,17.57
2018-11-28T17:33:06.417Z,18.03
2018-11-28T17:35:34.343Z,17.47
2018-11-28T17:38:02.269Z,16.57
2018-11-28T17:40:30.154Z,16.83
2018-11-28T17:42:59.173Z,16.50
2018-11-28T17:45:27.841Z,17.37
2018-11-28T17:47:55.745Z,14.70
2018-11-28T17:50:24.597Z,16.63
2018-11-28T17:53:08.868Z,14.90
2018-11-28T17:55:41.621Z,13.63
2018-11-28T17:58:09.518Z,14.80
2018-11-28T18:00:37.401Z,15.50
2018-11-28T18:03:05.314Z,15.30
2018-11-28T18:05:33.198Z,14.47
2018-11-28T18:08:01.115Z,14.70
2018-11-28T18:10:29.198Z,15.00
2018-11-28T18:13:03.574Z,14.20
2018-11-28T18:15:31.477Z,13.57
2018-11-28T18:17:59.377Z,13.23
2018-11-28T18:20:27.278Z,13.60
2018-11-28T18:22:55.173Z,12.93
2018-11-28T18:25:24.026Z,13.10
2018-11-28T18:27:52.033Z,12.00
2018-11-28T18:30:19.938Z,12.33
2018-11-28T18:32:47.842Z,13.03
2018-11-28T18:35:15.722Z,12.30
2018-11-28T18:37:43.635Z,12.00
2018-11-28T18:40:12.136Z,13.17
2018-11-28T18:42:40.911Z,12.77
2018-11-28T18:52:17.053Z,11.17
2018-11-28T18:54:44.958Z,10.97
2018-11-28T18:57:12.855Z,10.73
2018-11-28T18:59:40.921Z,10.90
2018-11-28T19:02:08.824Z,10.57
2018-11-28T19:04:36.710Z,9.93
2018-11-28T19:07:04.750Z,10.63
2018-11-28T19:09:37.945Z,10.40
2018-11-28T19:12:05.843Z,11.43
2018-11-28T19:14:33.824Z,9.60
2018-11-28T19:17:02.885Z,11.43
2018-11-28T19:19:30.795Z,10.50
2018-11-28T19:21:58.686Z,10.60
2018-11-28T19:24:26.614Z,11.10
2018-11-28T19:26:54.523Z,11.80
2018-11-28T19:29:22.448Z,8.93
2018-11-28T19:31:50.422Z,8.90
2018-11-28T19:34:18.452Z,10.40
2018-11-28T19:36:46.241Z,10.03
2018-11-28T19:39:14.185Z,10.10
2018-11-28T19:41:42.062Z,9.10
2018-11-28T19:44:09.950Z,8.87
2018-11-28T19:46:37.861Z,9.30
2018-11-28T19:49:05.846Z,9.90
2018-11-28T19:51:33.772Z,9.40
2018-11-28T19:56:42.862Z,8.37
2018-11-28T19:59:13.632Z,8.63
2018-11-28T20:01:41.793Z,8.87
2018-11-28T20:04:09.721Z,9.03
2018-11-28T20:06:37.624Z,8.50
2018-11-28T20:09:14.001Z,8.23
2018-11-28T20:11:41.925Z,8.23
2018-11-28T20:14:09.896Z,8.43
2018-11-28T20:16:37.811Z,7.77
2018-11-28T20:26:06.236Z,8.50
2018-11-28T20:28:34.141Z,9.47
2018-11-28T20:31:02.242Z,8.63
2018-11-28T20:33:30.262Z,7.93
2018-11-28T20:35:58.202Z,8.50
2018-11-28T20:38:29.993Z,8.27
2018-11-28T20:40:57.904Z,7.80
2018-11-28T20:43:25.863Z,7.90
2018-11-28T20:45:53.812Z,7.90
2018-11-28T20:48:21.715Z,7.83
2018-11-28T20:50:50.354Z,7.73
2018-11-28T20:53:19.155Z,8.47
2018-11-28T20:55:47.114Z,7.40
2018-11-28T20:58:15.037Z,7.63
2018-11-28T21:00:42.982Z,8.03
2018-11-28T21:03:10.919Z,7.63
2018-11-28T21:05:38.818Z,7.80
2018-11-28T21:08:08.442Z,7.77
2018-11-28T21:10:37.260Z,7.77
2018-11-28T21:13:06.581Z,7.87
2018-11-28T21:15:34.481Z,7.63
2018-11-28T21:18:02.398Z,7.77
2018-11-28T21:20:30.302Z,6.73
2018-11-28T21:23:00.509Z,7.67
2018-11-28T21:25:28.422Z,7.37
2018-11-28T21:27:56.317Z,7.50
2018-11-28T21:30:24.250Z,6.50
2018-11-28T21:32:53.114Z,6.53
2018-11-28T21:35:22.493Z,6.60
2018-11-28T21:37:50.414Z,6.17
2018-11-28T21:40:18.329Z,5.67
2018-11-28T21:42:46.221Z,6.67
2018-11-28T21:45:15.386Z,5.60
2018-11-28T21:47:43.289Z,5.80
2018-11-28T21:50:14.902Z,5.20
2018-11-28T21:52:42.801Z,5.60
2018-11-28T21:55:22.469Z,5.20
2018-11-28T21:57:50.354Z,5.40
2018-11-28T22:00:19.350Z,5.60
2018-11-28T22:02:47.245Z,5.50
2018-11-28T22:05:15.926Z,5.53
2018-11-28T22:07:43.822Z,5.43
2018-11-28T22:10:19.231Z,5.37
2018-11-28T22:12:47.188Z,5.40
2018-11-28T22:15:16.829Z,5.50
2018-11-28T22:18:01.525Z,5.50
2018-11-28T22:20:29.406Z,5.10
2018-11-28T22:22:57.314Z,4.53
2018-11-28T22:25:25.996Z,4.93
2018-11-28T22:27:53.990Z,4.47
2018-11-28T22:30:23.954Z,4.23
2018-11-28T22:32:51.864Z,4.73
2018-11-28T22:35:19.738Z,4.80
2018-11-28T22:37:47.653Z,5.30
2018-11-28T22:40:18.886Z,4.80
2018-11-28T22:42:46.779Z,4.53
2018-11-28T22:45:15.874Z,4.70
2018-11-28T22:47:43.773Z,5.07
2018-11-28T22:50:12.418Z,4.67
2018-11-28T22:52:40.333Z,5.13
2018-11-28T22:55:09.562Z,4.50
2018-11-28T22:57:37.488Z,5.07
2018-11-28T23:00:09.601Z,4.80
2018-11-28T23:02:49.378Z,4.60
2018-11-28T23:05:17.274Z,4.80
2018-11-28T23:07:45.271Z,4.67
2018-11-28T23:10:13.178Z,5.10
2018-11-28T23:12:41.062Z,4.77
2018-11-28T23:15:08.977Z,5.07
2018-11-28T23:17:36.882Z,4.90
2018-11-28T23:20:04.788Z,5.00
2018-11-28T23:22:32.681Z,6.00
2018-11-28T23:25:00.553Z,5.40
2018-11-28T23:27:28.485Z,5.93
2018-11-28T23:29:56.366Z,6.13
2018-11-28T23:32:24.245Z,5.87
2018-11-28T23:34:52.169Z,5.67
2018-11-28T23:37:20.046Z,6.30
2018-11-28T23:39:47.929Z,5.97
2018-11-28T23:42:15.833Z,5.80
2018-11-28T23:44:43.726Z,5.60
2018-11-28T23:47:11.645Z,6.20
2018-11-28T23:49:39.541Z,6.30
2018-11-28T23:52:07.421Z,6.20
2018-11-28T23:54:35.325Z,6.20
2018-11-28T23:57:03.217Z,6.97
2018-11-28T23:59:31.119Z,6.27
